sensor_id;sensor_type;location;lat;lon;timestamp;P1;durP1;ratioP1;P2;durP2;ratioP2
54384;SDS011;40284;52.878;5.998;2022-10-22T00:01:54;12.77;;;7.65;;
54384;SDS011;40284;52.878;5.998;2022-10-22T00:04:20;10.13;;;7.55;;
54384;SDS011;40284;52.878;5.998;2022-10-22T00:06:46;12.55;;;8.07;;
54384;SDS011;40284;52.878;5.998;2022-10-22T00:09:12;10.85;;;8.07;;
54384;SDS011;40284;52.878;5.998;2022-10-22T00:11:38;8.85;;;7.32;;
54384;SDS011;40284;52.878;5.998;2022-10-22T00:14:04;12.60;;;7.82;;
54384;SDS011;40284;52.878;5.998;2022-10-22T00:16:30;8.73;;;6.43;;
54384;SDS011;40284;52.878;5.998;2022-10-22T00:18:56;11.25;;;7.95;;
54384;SDS011;40284;52.878;5.998;2022-10-22T00:21:23;10.63;;;7.57;;
54384;SDS011;40284;52.878;5.998;2022-10-22T00:23:49;12.18;;;8.40;;
54384;SDS011;40284;52.878;5.998;2022-10-22T00:26:16;12.10;;;7.80;;
54384;SDS011;40284;52.878;5.998;2022-10-22T00:28:42;12.85;;;8.43;;
54384;SDS011;40284;52.878;5.998;2022-10-22T00:31:08;13.23;;;6.57;;
54384;SDS011;40284;52.878;5.998;2022-10-22T00:33:34;12.45;;;8.15;;
54384;SDS011;40284;52.878;5.998;2022-10-22T00:36:00;18.08;;;7.90;;
54384;SDS011;40284;52.878;5.998;2022-10-22T00:38:26;10.48;;;8.25;;
54384;SDS011;40284;52.878;5.998;2022-10-22T00:40:52;10.18;;;7.22;;
54384;SDS011;40284;52.878;5.998;2022-10-22T00:43:18;13.25;;;8.45;;
54384;SDS011;40284;52.878;5.998;2022-10-22T00:45:45;9.95;;;7.35;;
54384;SDS011;40284;52.878;5.998;2022-10-22T00:48:24;14.85;;;8.25;;
54384;SDS011;40284;52.878;5.998;2022-10-22T00:51:02;15.27;;;8.52;;
54384;SDS011;40284;52.878;5.998;2022-10-22T00:53:30;12.70;;;9.30;;
54384;SDS011;40284;52.878;5.998;2022-10-22T00:55:57;12.75;;;8.93;;
54384;SDS011;40284;52.878;5.998;2022-10-22T00:58:24;11.73;;;8.10;;
54384;SDS011;40284;52.878;5.998;2022-10-22T01:00:51;13.95;;;8.38;;
54384;SDS011;40284;52.878;5.998;2022-10-22T01:03:17;12.52;;;7.13;;
54384;SDS011;40284;52.878;5.998;2022-10-22T01:06:04;10.55;;;8.25;;
54384;SDS011;40284;52.878;5.998;2022-10-22T01:18:47;11.88;;;8.20;;
54384;SDS011;40284;52.878;5.998;2022-10-22T01:32:00;12.15;;;7.38;;
54384;SDS011;40284;52.878;5.998;2022-10-22T01:34:27;12.30;;;7.13;;
54384;SDS011;40284;52.878;5.998;2022-10-22T01:36:54;13.95;;;6.88;;
54384;SDS011;40284;52.878;5.998;2022-10-22T01:39:20;14.38;;;7.22;;
54384;SDS011;40284;52.878;5.998;2022-10-22T01:41:47;10.43;;;7.47;;
54384;SDS011;40284;52.878;5.998;2022-10-22T01:46:58;18.25;;;7.72;;
54384;SDS011;40284;52.878;5.998;2022-10-22T01:49:27;8.25;;;6.13;;
54384;SDS011;40284;52.878;5.998;2022-10-22T01:52:14;12.40;;;6.72;;
54384;SDS011;40284;52.878;5.998;2022-10-22T01:57:21;9.18;;;6.20;;
54384;SDS011;40284;52.878;5.998;2022-10-22T02:04:57;11.52;;;7.65;;
54384;SDS011;40284;52.878;5.998;2022-10-22T02:07:26;9.75;;;6.75;;
54384;SDS011;40284;52.878;5.998;2022-10-22T02:09:53;12.85;;;7.32;;
54384;SDS011;40284;52.878;5.998;2022-10-22T02:12:19;12.30;;;6.45;;
54384;SDS011;40284;52.878;5.998;2022-10-22T02:14:46;11.02;;;7.20;;
54384;SDS011;40284;52.878;5.998;2022-10-22T02:17:14;10.88;;;6.50;;
54384;SDS011;40284;52.878;5.998;2022-10-22T02:19:43;10.43;;;7.00;;
54384;SDS011;40284;52.878;5.998;2022-10-22T02:22:11;11.52;;;6.68;;
54384;SDS011;40284;52.878;5.998;2022-10-22T02:24:37;12.70;;;6.53;;
54384;SDS011;40284;52.878;5.998;2022-10-22T02:27:07;14.18;;;6.82;;
54384;SDS011;40284;52.878;5.998;2022-10-22T02:29:38;9.68;;;7.05;;
54384;SDS011;40284;52.878;5.998;2022-10-22T02:32:06;11.88;;;7.32;;
54384;SDS011;40284;52.878;5.998;2022-10-22T02:34:33;17.20;;;7.10;;
54384;SDS011;40284;52.878;5.998;2022-10-22T02:37:00;11.20;;;7.22;;
54384;SDS011;40284;52.878;5.998;2022-10-22T02:39:27;11.88;;;6.88;;
54384;SDS011;40284;52.878;5.998;2022-10-22T02:41:53;20.90;;;9.38;;
54384;SDS011;40284;52.878;5.998;2022-10-22T02:44:22;12.43;;;7.20;;
54384;SDS011;40284;52.878;5.998;2022-10-22T02:46:48;15.43;;;9.82;;
54384;SDS011;40284;52.878;5.998;2022-10-22T02:49:15;13.20;;;8.23;;
54384;SDS011;40284;52.878;5.998;2022-10-22T02:51:41;19.80;;;8.40;;
54384;SDS011;40284;52.878;5.998;2022-10-22T02:54:07;19.90;;;9.25;;
54384;SDS011;40284;52.878;5.998;2022-10-22T02:56:33;15.25;;;7.80;;
54384;SDS011;40284;52.878;5.998;2022-10-22T02:58:59;11.95;;;8.30;;
54384;SDS011;40284;52.878;5.998;2022-10-22T03:01:25;13.43;;;7.80;;
54384;SDS011;40284;52.878;5.998;2022-10-22T03:03:51;14.10;;;8.90;;
54384;SDS011;40284;52.878;5.998;2022-10-22T03:06:17;14.63;;;8.90;;
54384;SDS011;40284;52.878;5.998;2022-10-22T03:08:44;18.17;;;8.77;;
54384;SDS011;40284;52.878;5.998;2022-10-22T03:11:10;14.50;;;8.93;;
54384;SDS011;40284;52.878;5.998;2022-10-22T03:13:36;15.32;;;9.25;;
54384;SDS011;40284;52.878;5.998;2022-10-22T03:16:02;16.40;;;9.27;;
54384;SDS011;40284;52.878;5.998;2022-10-22T03:18:28;14.80;;;9.35;;
54384;SDS011;40284;52.878;5.998;2022-10-22T03:21:10;15.82;;;9.27;;
54384;SDS011;40284;52.878;5.998;2022-10-22T03:23:37;16.20;;;8.45;;
54384;SDS011;40284;52.878;5.998;2022-10-22T03:26:05;14.13;;;8.98;;
54384;SDS011;40284;52.878;5.998;2022-10-22T03:28:31;17.13;;;9.00;;
54384;SDS011;40284;52.878;5.998;2022-10-22T03:30:58;17.02;;;8.68;;
54384;SDS011;40284;52.878;5.998;2022-10-22T03:33:24;15.13;;;8.70;;
54384;SDS011;40284;52.878;5.998;2022-10-22T03:35:50;13.48;;;8.05;;
54384;SDS011;40284;52.878;5.998;2022-10-22T03:38:16;17.23;;;9.20;;
54384;SDS011;40284;52.878;5.998;2022-10-22T03:40:42;15.77;;;8.38;;
54384;SDS011;40284;52.878;5.998;2022-10-22T03:43:09;12.90;;;9.52;;
54384;SDS011;40284;52.878;5.998;2022-10-22T03:45:35;13.20;;;7.90;;
54384;SDS011;40284;52.878;5.998;2022-10-22T03:48:01;17.35;;;9.15;;
54384;SDS011;40284;52.878;5.998;2022-10-22T03:50:27;15.45;;;8.73;;
54384;SDS011;40284;52.878;5.998;2022-10-22T03:52:53;14.63;;;8.38;;
54384;SDS011;40284;52.878;5.998;2022-10-22T03:55:19;16.73;;;8.80;;
54384;SDS011;40284;52.878;5.998;2022-10-22T03:57:45;15.05;;;9.10;;
54384;SDS011;40284;52.878;5.998;2022-10-22T04:00:11;16.98;;;8.95;;
54384;SDS011;40284;52.878;5.998;2022-10-22T04:02:37;15.93;;;8.98;;
54384;SDS011;40284;52.878;5.998;2022-10-22T04:05:03;15.63;;;8.18;;
54384;SDS011;40284;52.878;5.998;2022-10-22T04:07:29;13.07;;;8.93;;
54384;SDS011;40284;52.878;5.998;2022-10-22T04:09:56;20.52;;;9.30;;
54384;SDS011;40284;52.878;5.998;2022-10-22T04:12:22;16.00;;;8.95;;
54384;SDS011;40284;52.878;5.998;2022-10-22T04:14:48;12.80;;;9.05;;
54384;SDS011;40284;52.878;5.998;2022-10-22T04:17:14;17.48;;;9.80;;
54384;SDS011;40284;52.878;5.998;2022-10-22T04:19:40;14.57;;;9.30;;
54384;SDS011;40284;52.878;5.998;2022-10-22T04:22:06;12.30;;;9.25;;
54384;SDS011;40284;52.878;5.998;2022-10-22T04:24:32;23.27;;;10.32;;
54384;SDS011;40284;52.878;5.998;2022-10-22T04:26:58;15.55;;;9.30;;
54384;SDS011;40284;52.878;5.998;2022-10-22T04:29:24;14.18;;;8.52;;
54384;SDS011;40284;52.878;5.998;2022-10-22T04:31:50;13.68;;;9.68;;
54384;SDS011;40284;52.878;5.998;2022-10-22T04:34:16;15.50;;;9.90;;
54384;SDS011;40284;52.878;5.998;2022-10-22T04:36:42;17.58;;;9.57;;
54384;SDS011;40284;52.878;5.998;2022-10-22T04:39:08;15.25;;;9.25;;
54384;SDS011;40284;52.878;5.998;2022-10-22T04:41:35;20.90;;;9.73;;
54384;SDS011;40284;52.878;5.998;2022-10-22T04:44:02;15.45;;;9.07;;
54384;SDS011;40284;52.878;5.998;2022-10-22T04:46:29;15.43;;;10.15;;
54384;SDS011;40284;52.878;5.998;2022-10-22T04:48:55;12.18;;;8.73;;
54384;SDS011;40284;52.878;5.998;2022-10-22T04:51:22;28.92;;;9.45;;
54384;SDS011;40284;52.878;5.998;2022-10-22T04:53:48;15.13;;;9.23;;
54384;SDS011;40284;52.878;5.998;2022-10-22T04:58:42;13.88;;;9.10;;
54384;SDS011;40284;52.878;5.998;2022-10-22T05:01:12;16.73;;;9.85;;
54384;SDS011;40284;52.878;5.998;2022-10-22T05:03:38;18.77;;;10.82;;
54384;SDS011;40284;52.878;5.998;2022-10-22T05:06:04;17.35;;;10.23;;
54384;SDS011;40284;52.878;5.998;2022-10-22T05:08:31;14.75;;;9.68;;
54384;SDS011;40284;52.878;5.998;2022-10-22T05:10:57;14.60;;;9.25;;
54384;SDS011;40284;52.878;5.998;2022-10-22T05:13:23;17.50;;;9.57;;
54384;SDS011;40284;52.878;5.998;2022-10-22T05:15:49;14.85;;;9.68;;
54384;SDS011;40284;52.878;5.998;2022-10-22T05:18:15;14.70;;;9.45;;
54384;SDS011;40284;52.878;5.998;2022-10-22T05:20:41;17.48;;;9.30;;
54384;SDS011;40284;52.878;5.998;2022-10-22T05:23:07;14.55;;;8.70;;
54384;SDS011;40284;52.878;5.998;2022-10-22T05:25:37;15.70;;;9.23;;
54384;SDS011;40284;52.878;5.998;2022-10-22T05:28:03;14.68;;;8.02;;
54384;SDS011;40284;52.878;5.998;2022-10-22T05:30:29;19.60;;;8.73;;
54384;SDS011;40284;52.878;5.998;2022-10-22T05:32:55;13.30;;;8.65;;
54384;SDS011;40284;52.878;5.998;2022-10-22T05:35:21;14.43;;;8.65;;
54384;SDS011;40284;52.878;5.998;2022-10-22T05:37:47;13.25;;;8.80;;
54384;SDS011;40284;52.878;5.998;2022-10-22T05:40:13;17.63;;;8.32;;
54384;SDS011;40284;52.878;5.998;2022-10-22T05:42:39;16.08;;;8.55;;
54384;SDS011;40284;52.878;5.998;2022-10-22T05:45:06;11.80;;;8.05;;
54384;SDS011;40284;52.878;5.998;2022-10-22T05:47:33;12.80;;;7.80;;
54384;SDS011;40284;52.878;5.998;2022-10-22T05:49:59;17.17;;;9.00;;
54384;SDS011;40284;52.878;5.998;2022-10-22T05:52:25;10.27;;;7.93;;
54384;SDS011;40284;52.878;5.998;2022-10-22T05:54:51;12.43;;;7.60;;
54384;SDS011;40284;52.878;5.998;2022-10-22T05:57:17;15.02;;;8.48;;
54384;SDS011;40284;52.878;5.998;2022-10-22T05:59:43;16.98;;;8.30;;
54384;SDS011;40284;52.878;5.998;2022-10-22T06:02:10;15.00;;;8.10;;
54384;SDS011;40284;52.878;5.998;2022-10-22T06:04:36;15.23;;;8.68;;
54384;SDS011;40284;52.878;5.998;2022-10-22T06:07:02;13.77;;;7.85;;
54384;SDS011;40284;52.878;5.998;2022-10-22T06:09:35;11.40;;;7.30;;
54384;SDS011;40284;52.878;5.998;2022-10-22T06:12:01;13.18;;;7.32;;
54384;SDS011;40284;52.878;5.998;2022-10-22T06:14:27;11.07;;;7.55;;
54384;SDS011;40284;52.878;5.998;2022-10-22T06:16:57;16.30;;;7.78;;
54384;SDS011;40284;52.878;5.998;2022-10-22T06:19:23;11.88;;;7.07;;
54384;SDS011;40284;52.878;5.998;2022-10-22T06:21:51;12.75;;;7.80;;
54384;SDS011;40284;52.878;5.998;2022-10-22T06:24:17;18.38;;;8.20;;
54384;SDS011;40284;52.878;5.998;2022-10-22T06:26:43;11.35;;;7.78;;
54384;SDS011;40284;52.878;5.998;2022-10-22T06:29:09;17.00;;;8.35;;
54384;SDS011;40284;52.878;5.998;2022-10-22T06:31:35;11.48;;;7.85;;
54384;SDS011;40284;52.878;5.998;2022-10-22T06:34:02;13.10;;;8.05;;
54384;SDS011;40284;52.878;5.998;2022-10-22T06:36:28;15.73;;;8.30;;
54384;SDS011;40284;52.878;5.998;2022-10-22T06:38:55;16.08;;;7.32;;
54384;SDS011;40284;52.878;5.998;2022-10-22T06:41:21;15.38;;;7.47;;
54384;SDS011;40284;52.878;5.998;2022-10-22T06:43:47;14.60;;;6.90;;
54384;SDS011;40284;52.878;5.998;2022-10-22T06:46:15;12.55;;;6.63;;
54384;SDS011;40284;52.878;5.998;2022-10-22T06:48:41;14.50;;;7.30;;
54384;SDS011;40284;52.878;5.998;2022-10-22T06:51:09;20.17;;;7.47;;
54384;SDS011;40284;52.878;5.998;2022-10-22T06:53:37;10.65;;;6.40;;
54384;SDS011;40284;52.878;5.998;2022-10-22T06:56:04;13.35;;;6.95;;
54384;SDS011;40284;52.878;5.998;2022-10-22T06:58:30;17.55;;;7.53;;
54384;SDS011;40284;52.878;5.998;2022-10-22T07:01:00;25.52;;;8.30;;
54384;SDS011;40284;52.878;5.998;2022-10-22T07:03:26;23.15;;;7.32;;
54384;SDS011;40284;52.878;5.998;2022-10-22T07:05:52;12.13;;;6.63;;
54384;SDS011;40284;52.878;5.998;2022-10-22T07:08:18;10.75;;;6.68;;
54384;SDS011;40284;52.878;5.998;2022-10-22T07:10:44;18.45;;;6.65;;
54384;SDS011;40284;52.878;5.998;2022-10-22T07:13:10;14.88;;;6.97;;
54384;SDS011;40284;52.878;5.998;2022-10-22T07:15:36;10.70;;;6.63;;
54384;SDS011;40284;52.878;5.998;2022-10-22T07:18:03;11.68;;;6.22;;
54384;SDS011;40284;52.878;5.998;2022-10-22T07:20:29;13.38;;;6.80;;
54384;SDS011;40284;52.878;5.998;2022-10-22T07:22:55;15.77;;;7.38;;
54384;SDS011;40284;52.878;5.998;2022-10-22T07:25:21;14.82;;;6.70;;
54384;SDS011;40284;52.878;5.998;2022-10-22T07:27:47;17.00;;;6.88;;
54384;SDS011;40284;52.878;5.998;2022-10-22T07:30:13;15.57;;;7.13;;
54384;SDS011;40284;52.878;5.998;2022-10-22T07:32:39;17.45;;;7.22;;
54384;SDS011;40284;52.878;5.998;2022-10-22T07:35:05;14.07;;;7.45;;
54384;SDS011;40284;52.878;5.998;2022-10-22T07:37:31;15.10;;;6.78;;
54384;SDS011;40284;52.878;5.998;2022-10-22T07:39:57;13.07;;;5.63;;
54384;SDS011;40284;52.878;5.998;2022-10-22T07:42:23;12.63;;;6.50;;
54384;SDS011;40284;52.878;5.998;2022-10-22T07:44:49;16.45;;;6.75;;
54384;SDS011;40284;52.878;5.998;2022-10-22T07:47:16;18.50;;;6.72;;
54384;SDS011;40284;52.878;5.998;2022-10-22T07:49:42;18.80;;;7.30;;
54384;SDS011;40284;52.878;5.998;2022-10-22T07:52:08;13.70;;;6.75;;
54384;SDS011;40284;52.878;5.998;2022-10-22T07:54:34;15.95;;;6.40;;
54384;SDS011;40284;52.878;5.998;2022-10-22T07:57:00;18.77;;;7.13;;
54384;SDS011;40284;52.878;5.998;2022-10-22T07:59:26;16.38;;;7.03;;
54384;SDS011;40284;52.878;5.998;2022-10-22T08:01:52;13.90;;;6.03;;
54384;SDS011;40284;52.878;5.998;2022-10-22T08:04:18;13.77;;;7.03;;
54384;SDS011;40284;52.878;5.998;2022-10-22T08:06:44;14.40;;;6.40;;
54384;SDS011;40284;52.878;5.998;2022-10-22T08:09:10;11.63;;;5.95;;
54384;SDS011;40284;52.878;5.998;2022-10-22T08:11:36;20.45;;;6.38;;
54384;SDS011;40284;52.878;5.998;2022-10-22T08:14:03;17.77;;;5.97;;
54384;SDS011;40284;52.878;5.998;2022-10-22T08:16:29;14.68;;;5.90;;
54384;SDS011;40284;52.878;5.998;2022-10-22T08:18:55;11.82;;;6.03;;
54384;SDS011;40284;52.878;5.998;2022-10-22T08:21:21;17.10;;;6.22;;
54384;SDS011;40284;52.878;5.998;2022-10-22T08:23:47;16.10;;;5.72;;
54384;SDS011;40284;52.878;5.998;2022-10-22T08:26:13;16.33;;;5.70;;
54384;SDS011;40284;52.878;5.998;2022-10-22T08:28:39;16.45;;;5.55;;
54384;SDS011;40284;52.878;5.998;2022-10-22T08:31:06;17.83;;;6.00;;
54384;SDS011;40284;52.878;5.998;2022-10-22T08:33:32;14.20;;;5.43;;
54384;SDS011;40284;52.878;5.998;2022-10-22T08:35:58;15.40;;;4.50;;
54384;SDS011;40284;52.878;5.998;2022-10-22T08:38:25;11.90;;;4.80;;
54384;SDS011;40284;52.878;5.998;2022-10-22T08:40:52;13.35;;;4.57;;
54384;SDS011;40284;52.878;5.998;2022-10-22T08:43:23;13.98;;;5.22;;
54384;SDS011;40284;52.878;5.998;2022-10-22T08:46:07;27.70;;;5.78;;
54384;SDS011;40284;52.878;5.998;2022-10-22T08:51:04;10.27;;;4.38;;
54384;SDS011;40284;52.878;5.998;2022-10-22T08:53:37;11.98;;;4.65;;
54384;SDS011;40284;52.878;5.998;2022-10-22T08:56:06;14.40;;;4.90;;
54384;SDS011;40284;52.878;5.998;2022-10-22T09:01:33;12.73;;;4.47;;
54384;SDS011;40284;52.878;5.998;2022-10-22T09:06:27;13.95;;;4.72;;
54384;SDS011;40284;52.878;5.998;2022-10-22T09:08:54;11.90;;;4.35;;
54384;SDS011;40284;52.878;5.998;2022-10-22T09:13:51;15.25;;;4.35;;
54384;SDS011;40284;52.878;5.998;2022-10-22T09:24:01;12.20;;;4.65;;
54384;SDS011;40284;52.878;5.998;2022-10-22T09:26:23;14.25;;;5.60;;
54384;SDS011;40284;52.878;5.998;2022-10-22T09:28:50;15.57;;;4.90;;
54384;SDS011;40284;52.878;5.998;2022-10-22T09:31:16;15.60;;;5.18;;
54384;SDS011;40284;52.878;5.998;2022-10-22T09:33:43;12.77;;;4.10;;
54384;SDS011;40284;52.878;5.998;2022-10-22T09:36:14;14.38;;;4.40;;
54384;SDS011;40284;52.878;5.998;2022-10-22T09:38:46;19.30;;;4.47;;
54384;SDS011;40284;52.878;5.998;2022-10-22T09:41:12;15.55;;;5.00;;
54384;SDS011;40284;52.878;5.998;2022-10-22T09:43:38;12.05;;;4.88;;
54384;SDS011;40284;52.878;5.998;2022-10-22T09:46:06;11.75;;;4.03;;
54384;SDS011;40284;52.878;5.998;2022-10-22T09:48:33;13.02;;;4.38;;
54384;SDS011;40284;52.878;5.998;2022-10-22T09:53:49;10.15;;;4.53;;
54384;SDS011;40284;52.878;5.998;2022-10-22T09:58:46;17.98;;;5.10;;
54384;SDS011;40284;52.878;5.998;2022-10-22T10:01:20;11.57;;;4.70;;
54384;SDS011;40284;52.878;5.998;2022-10-22T10:03:47;15.25;;;5.03;;
54384;SDS011;40284;52.878;5.998;2022-10-22T10:06:16;11.68;;;5.45;;
54384;SDS011;40284;52.878;5.998;2022-10-22T10:08:42;17.23;;;6.25;;
54384;SDS011;40284;52.878;5.998;2022-10-22T10:16:19;9.80;;;5.95;;
54384;SDS011;40284;52.878;5.998;2022-10-22T10:21:42;16.65;;;6.97;;
54384;SDS011;40284;52.878;5.998;2022-10-22T10:29:14;16.52;;;6.78;;
54384;SDS011;40284;52.878;5.998;2022-10-22T10:36:51;14.23;;;6.60;;
54384;SDS011;40284;52.878;5.998;2022-10-22T10:47:12;12.17;;;6.33;;
54384;SDS011;40284;52.878;5.998;2022-10-22T10:49:39;14.88;;;6.55;;
54384;SDS011;40284;52.878;5.998;2022-10-22T10:57:35;16.40;;;7.15;;
54384;SDS011;40284;52.878;5.998;2022-10-22T11:02:44;15.15;;;6.90;;
54384;SDS011;40284;52.878;5.998;2022-10-22T11:06:17;15.30;;;6.37;;
54384;SDS011;40284;52.878;5.998;2022-10-22T11:08:19;12.88;;;5.82;;
54384;SDS011;40284;52.878;5.998;2022-10-22T11:11:00;17.27;;;6.70;;
54384;SDS011;40284;52.878;5.998;2022-10-22T11:13:37;15.52;;;6.28;;
54384;SDS011;40284;52.878;5.998;2022-10-22T11:21:35;16.52;;;6.45;;
54384;SDS011;40284;52.878;5.998;2022-10-22T11:24:21;10.30;;;5.88;;
54384;SDS011;40284;52.878;5.998;2022-10-22T11:26:56;13.18;;;5.60;;
54384;SDS011;40284;52.878;5.998;2022-10-22T11:29:48;19.20;;;6.30;;
54384;SDS011;40284;52.878;5.998;2022-10-22T11:32:13;14.98;;;5.50;;
54384;SDS011;40284;52.878;5.998;2022-10-22T11:34:44;11.43;;;5.75;;
54384;SDS011;40284;52.878;5.998;2022-10-22T11:37:11;15.30;;;5.55;;
54384;SDS011;40284;52.878;5.998;2022-10-22T11:39:42;11.18;;;5.38;;
54384;SDS011;40284;52.878;5.998;2022-10-22T11:42:11;13.60;;;5.57;;
54384;SDS011;40284;52.878;5.998;2022-10-22T11:47:25;11.15;;;5.78;;
54384;SDS011;40284;52.878;5.998;2022-10-22T11:54:48;20.20;;;5.32;;
54384;SDS011;40284;52.878;5.998;2022-10-22T11:59:44;13.77;;;4.32;;
54384;SDS011;40284;52.878;5.998;2022-10-22T12:02:47;11.63;;;5.00;;
54384;SDS011;40284;52.878;5.998;2022-10-22T12:13:23;12.80;;;3.95;;
54384;SDS011;40284;52.878;5.998;2022-10-22T12:15:50;18.00;;;4.20;;
54384;SDS011;40284;52.878;5.998;2022-10-22T12:18:18;12.45;;;3.53;;
54384;SDS011;40284;52.878;5.998;2022-10-22T12:20:51;10.43;;;3.05;;
54384;SDS011;40284;52.878;5.998;2022-10-22T12:23:18;11.00;;;3.25;;
54384;SDS011;40284;52.878;5.998;2022-10-22T12:25:47;10.45;;;3.45;;
54384;SDS011;40284;52.878;5.998;2022-10-22T12:28:13;9.30;;;2.90;;
54384;SDS011;40284;52.878;5.998;2022-10-22T12:30:40;7.85;;;2.28;;
54384;SDS011;40284;52.878;5.998;2022-10-22T12:33:07;10.82;;;2.38;;
54384;SDS011;40284;52.878;5.998;2022-10-22T12:35:34;10.90;;;2.80;;
54384;SDS011;40284;52.878;5.998;2022-10-22T12:38:39;10.65;;;2.38;;
54384;SDS011;40284;52.878;5.998;2022-10-22T12:40:58;10.57;;;2.55;;
54384;SDS011;40284;52.878;5.998;2022-10-22T12:43:27;10.25;;;2.28;;
54384;SDS011;40284;52.878;5.998;2022-10-22T12:45:54;10.63;;;2.38;;
54384;SDS011;40284;52.878;5.998;2022-10-22T12:48:36;9.18;;;2.22;;
54384;SDS011;40284;52.878;5.998;2022-10-22T12:51:03;10.38;;;1.52;;
54384;SDS011;40284;52.878;5.998;2022-10-22T12:53:37;13.30;;;2.05;;
54384;SDS011;40284;52.878;5.998;2022-10-22T12:56:05;6.85;;;1.60;;
54384;SDS011;40284;52.878;5.998;2022-10-22T13:01:13;6.90;;;2.03;;
54384;SDS011;40284;52.878;5.998;2022-10-22T13:03:41;10.43;;;2.17;;
54384;SDS011;40284;52.878;5.998;2022-10-22T13:06:10;7.45;;;2.38;;
54384;SDS011;40284;52.878;5.998;2022-10-22T13:08:36;8.13;;;1.80;;
54384;SDS011;40284;52.878;5.998;2022-10-22T13:11:08;11.95;;;1.73;;
54384;SDS011;40284;52.878;5.998;2022-10-22T13:16:17;9.63;;;1.75;;
54384;SDS011;40284;52.878;5.998;2022-10-22T13:18:44;10.98;;;1.98;;
54384;SDS011;40284;52.878;5.998;2022-10-22T13:23:59;11.73;;;2.13;;
54384;SDS011;40284;52.878;5.998;2022-10-22T13:26:32;9.05;;;2.17;;
54384;SDS011;40284;52.878;5.998;2022-10-22T13:28:58;9.38;;;1.88;;
54384;SDS011;40284;52.878;5.998;2022-10-22T13:31:26;8.65;;;2.13;;
54384;SDS011;40284;52.878;5.998;2022-10-22T13:33:54;8.57;;;2.30;;
54384;SDS011;40284;52.878;5.998;2022-10-22T13:36:20;6.68;;;1.58;;
54384;SDS011;40284;52.878;5.998;2022-10-22T13:38:47;7.00;;;1.80;;
54384;SDS011;40284;52.878;5.998;2022-10-22T13:41:20;11.88;;;1.92;;
54384;SDS011;40284;52.878;5.998;2022-10-22T13:43:46;9.15;;;2.08;;
54384;SDS011;40284;52.878;5.998;2022-10-22T13:46:12;9.75;;;1.98;;
54384;SDS011;40284;52.878;5.998;2022-10-22T13:48:39;10.52;;;1.92;;
54384;SDS011;40284;52.878;5.998;2022-10-22T13:51:12;10.50;;;2.42;;
54384;SDS011;40284;52.878;5.998;2022-10-22T13:56:04;10.13;;;2.00;;
54384;SDS011;40284;52.878;5.998;2022-10-22T13:58:30;13.10;;;2.05;;
54384;SDS011;40284;52.878;5.998;2022-10-22T14:00:57;8.07;;;2.28;;
54384;SDS011;40284;52.878;5.998;2022-10-22T14:03:30;12.73;;;2.40;;
54384;SDS011;40284;52.878;5.998;2022-10-22T14:05:56;14.27;;;3.10;;
54384;SDS011;40284;52.878;5.998;2022-10-22T14:08:23;15.00;;;2.78;;
54384;SDS011;40284;52.878;5.998;2022-10-22T14:10:50;10.10;;;2.35;;
54384;SDS011;40284;52.878;5.998;2022-10-22T14:13:16;11.50;;;2.22;;
54384;SDS011;40284;52.878;5.998;2022-10-22T14:15:43;15.75;;;2.72;;
54384;SDS011;40284;52.878;5.998;2022-10-22T14:18:10;9.80;;;2.35;;
54384;SDS011;40284;52.878;5.998;2022-10-22T14:20:38;17.63;;;3.58;;
54384;SDS011;40284;52.878;5.998;2022-10-22T14:23:16;12.43;;;3.22;;
54384;SDS011;40284;52.878;5.998;2022-10-22T14:25:44;14.10;;;3.08;;
54384;SDS011;40284;52.878;5.998;2022-10-22T14:28:10;18.00;;;3.75;;
54384;SDS011;40284;52.878;5.998;2022-10-22T14:30:36;13.63;;;2.83;;
54384;SDS011;40284;52.878;5.998;2022-10-22T14:33:08;15.90;;;3.70;;
54384;SDS011;40284;52.878;5.998;2022-10-22T14:35:35;19.67;;;3.83;;
54384;SDS011;40284;52.878;5.998;2022-10-22T14:38:01;15.43;;;3.95;;
54384;SDS011;40284;52.878;5.998;2022-10-22T14:40:27;17.15;;;3.65;;
54384;SDS011;40284;52.878;5.998;2022-10-22T14:42:53;21.58;;;3.42;;
54384;SDS011;40284;52.878;5.998;2022-10-22T14:45:20;14.27;;;3.05;;
54384;SDS011;40284;52.878;5.998;2022-10-22T14:47:47;14.60;;;2.72;;
54384;SDS011;40284;52.878;5.998;2022-10-22T14:50:14;11.10;;;2.58;;
54384;SDS011;40284;52.878;5.998;2022-10-22T14:52:40;18.15;;;3.75;;
54384;SDS011;40284;52.878;5.998;2022-10-22T14:55:08;11.82;;;2.10;;
54384;SDS011;40284;52.878;5.998;2022-10-22T14:57:34;21.35;;;3.42;;
54384;SDS011;40284;52.878;5.998;2022-10-22T15:00:00;16.77;;;3.30;;
54384;SDS011;40284;52.878;5.998;2022-10-22T15:02:26;18.38;;;4.00;;
54384;SDS011;40284;52.878;5.998;2022-10-22T15:04:52;13.55;;;2.75;;
54384;SDS011;40284;52.878;5.998;2022-10-22T15:07:18;16.10;;;3.40;;
54384;SDS011;40284;52.878;5.998;2022-10-22T15:09:45;18.92;;;3.50;;
54384;SDS011;40284;52.878;5.998;2022-10-22T15:12:11;18.15;;;3.80;;
54384;SDS011;40284;52.878;5.998;2022-10-22T15:14:37;17.77;;;3.00;;
54384;SDS011;40284;52.878;5.998;2022-10-22T15:17:03;15.10;;;3.30;;
54384;SDS011;40284;52.878;5.998;2022-10-22T15:19:29;17.33;;;3.25;;
54384;SDS011;40284;52.878;5.998;2022-10-22T15:21:55;12.35;;;2.88;;
54384;SDS011;40284;52.878;5.998;2022-10-22T15:24:21;13.32;;;3.42;;
54384;SDS011;40284;52.878;5.998;2022-10-22T15:26:47;14.38;;;3.40;;
54384;SDS011;40284;52.878;5.998;2022-10-22T15:29:16;14.35;;;3.03;;
54384;SDS011;40284;52.878;5.998;2022-10-22T15:31:44;15.50;;;3.30;;
54384;SDS011;40284;52.878;5.998;2022-10-22T15:34:11;16.98;;;3.47;;
54384;SDS011;40284;52.878;5.998;2022-10-22T15:36:37;16.70;;;3.33;;
54384;SDS011;40284;52.878;5.998;2022-10-22T15:39:06;20.10;;;3.75;;
54384;SDS011;40284;52.878;5.998;2022-10-22T15:41:33;17.38;;;3.80;;
54384;SDS011;40284;52.878;5.998;2022-10-22T15:43:59;17.33;;;4.00;;
54384;SDS011;40284;52.878;5.998;2022-10-22T15:46:25;15.75;;;3.45;;
54384;SDS011;40284;52.878;5.998;2022-10-22T15:48:53;18.40;;;3.00;;
54384;SDS011;40284;52.878;5.998;2022-10-22T15:51:19;16.25;;;3.20;;
54384;SDS011;40284;52.878;5.998;2022-10-22T15:53:55;17.77;;;3.78;;
54384;SDS011;40284;52.878;5.998;2022-10-22T15:56:22;17.02;;;4.43;;
54384;SDS011;40284;52.878;5.998;2022-10-22T15:58:55;19.00;;;3.47;;
54384;SDS011;40284;52.878;5.998;2022-10-22T16:01:22;15.98;;;3.47;;
54384;SDS011;40284;52.878;5.998;2022-10-22T16:03:49;12.27;;;2.75;;
54384;SDS011;40284;52.878;5.998;2022-10-22T16:06:17;17.05;;;4.00;;
54384;SDS011;40284;52.878;5.998;2022-10-22T16:08:44;22.85;;;3.83;;
54384;SDS011;40284;52.878;5.998;2022-10-22T16:11:10;18.30;;;4.55;;
54384;SDS011;40284;52.878;5.998;2022-10-22T16:13:36;13.20;;;3.53;;
54384;SDS011;40284;52.878;5.998;2022-10-22T16:16:06;18.52;;;3.38;;
54384;SDS011;40284;52.878;5.998;2022-10-22T16:18:32;15.32;;;3.97;;
54384;SDS011;40284;52.878;5.998;2022-10-22T16:20:58;17.48;;;3.45;;
54384;SDS011;40284;52.878;5.998;2022-10-22T16:23:24;16.85;;;3.80;;
54384;SDS011;40284;52.878;5.998;2022-10-22T16:25:50;16.88;;;4.00;;
54384;SDS011;40284;52.878;5.998;2022-10-22T16:28:16;18.70;;;4.13;;
54384;SDS011;40284;52.878;5.998;2022-10-22T16:30:42;16.60;;;4.07;;
54384;SDS011;40284;52.878;5.998;2022-10-22T16:33:08;22.27;;;5.53;;
54384;SDS011;40284;52.878;5.998;2022-10-22T16:35:38;15.82;;;5.47;;
54384;SDS011;40284;52.878;5.998;2022-10-22T16:38:05;17.73;;;3.72;;
54384;SDS011;40284;52.878;5.998;2022-10-22T16:40:31;18.27;;;4.25;;
54384;SDS011;40284;52.878;5.998;2022-10-22T16:42:57;22.77;;;3.47;;
54384;SDS011;40284;52.878;5.998;2022-10-22T16:45:23;16.27;;;3.38;;